createdAt,value
2023-09-06T00:00:00.394Z,12.6
2023-09-06T00:15:00.357Z,12.4
2023-09-06T00:30:00.380Z,12.4
2023-09-06T00:45:00.345Z,12.3
2023-09-06T01:00:00.437Z,12.2
2023-09-06T01:15:00.392Z,12.0
2023-09-06T01:30:00.360Z,11.9
2023-09-06T01:45:00.359Z,11.9
2023-09-06T02:00:00.466Z,11.8
2023-09-06T02:15:00.371Z,11.7
2023-09-06T02:30:00.354Z,11.7
2023-09-06T02:45:00.359Z,11.6
2023-09-06T03:00:00.426Z,11.4
2023-09-06T03:15:00.367Z,11.4
2023-09-06T03:30:00.361Z,11.3
2023-09-06T03:45:00.343Z,11.2
2023-09-06T04:00:00.475Z,11.1
2023-09-06T04:15:00.335Z,11.0
2023-09-06T04:30:00.389Z,10.9
2023-09-06T04:45:00.355Z,10.9
2023-09-06T05:15:00.728Z,11.0
2023-09-06T05:30:00.666Z,11.3
2023-09-06T05:45:00.656Z,11.8
2023-09-06T06:00:00.663Z,12.4
2023-09-06T06:15:00.773Z,13.2
2023-09-06T06:30:00.737Z,14.2
2023-09-06T06:45:00.289Z,15.2
2023-09-06T07:00:00.299Z,16.1
2023-09-06T07:15:00.281Z,17.0
2023-09-06T07:30:00.318Z,17.9
2023-09-06T07:45:00.313Z,19.0
2023-09-06T08:00:00.280Z,19.8
2023-09-06T09:15:07.436Z,23.0
2023-09-06T09:30:01.068Z,23.3
2023-09-06T09:45:00.552Z,23.7
2023-09-06T10:00:00.471Z,24.0
2023-09-06T10:15:00.469Z,23.8
2023-09-06T10:45:00.778Z,23.8
2023-09-06T11:00:00.366Z,24.1
2023-09-06T11:15:00.305Z,24.1
2023-09-06T11:30:00.386Z,24.2
2023-09-06T11:45:00.317Z,24.5
2023-09-06T12:00:00.318Z,24.7
2023-09-06T12:15:00.396Z,24.5
2023-09-06T12:30:00.500Z,24.6
2023-09-06T12:45:00.399Z,24.1
2023-09-06T13:00:00.317Z,23.9
2023-09-06T13:15:00.369Z,24.0
2023-09-06T13:30:00.350Z,24.0
2023-09-06T13:45:00.482Z,24.1
2023-09-06T14:00:00.334Z,24.2
2023-09-06T14:30:00.612Z,24.3
2023-09-06T14:45:00.511Z,24.6
2023-09-06T15:00:00.688Z,24.5
2023-09-06T15:15:00.539Z,24.7
2023-09-06T15:30:00.675Z,24.6
2023-09-06T15:45:00.494Z,24.4
2023-09-06T16:00:03.239Z,24.3
2023-09-06T16:15:00.545Z,24.0
2023-09-06T16:30:00.700Z,23.3
2023-09-06T16:45:00.514Z,22.8
2023-09-06T17:00:00.472Z,22.2
2023-09-06T17:15:00.482Z,21.8
2023-09-06T17:30:00.601Z,21.8
2023-09-06T17:45:00.502Z,21.8
2023-09-06T18:00:00.462Z,21.8
2023-09-06T18:15:02.816Z,21.8
2023-09-06T18:30:00.577Z,21.8
2023-09-06T18:45:00.508Z,21.8
2023-09-06T19:00:00.508Z,21.8
2023-09-06T19:15:00.475Z,21.8
2023-09-06T19:30:00.559Z,21.8
2023-09-06T19:45:00.479Z,21.8
2023-09-06T20:00:00.475Z,21.8
2023-09-06T20:15:00.498Z,21.8
2023-09-06T20:30:00.636Z,21.8
2023-09-06T20:45:00.462Z,21.8
2023-09-06T21:00:00.514Z,21.8
2023-09-06T21:15:00.538Z,21.8
2023-09-06T21:30:00.568Z,21.8
2023-09-06T21:45:00.497Z,21.8
2023-09-06T22:00:00.487Z,21.8
2023-09-06T22:15:00.464Z,21.8
2023-09-06T22:30:00.547Z,21.8
2023-09-06T22:45:00.492Z,21.8
2023-09-06T23:00:00.453Z,21.8
2023-09-06T23:15:00.492Z,21.8
2023-09-06T23:30:00.539Z,21.8
2023-09-06T23:45:00.652Z,21.8
